createdAt,value
2019-01-24T00:00:57.589Z,100855.55
2019-01-24T00:03:25.785Z,100856.28
2019-01-24T00:05:53.998Z,100862.03
2019-01-24T00:08:22.199Z,100864.76
2019-01-24T00:10:50.401Z,100874.02
2019-01-24T00:13:18.591Z,100875.60
2019-01-24T00:15:46.799Z,100884.96
2019-01-24T00:18:15.092Z,100887.59
2019-01-24T00:20:43.288Z,100889.45
2019-01-24T00:23:11.481Z,100890.11
2019-01-24T00:25:39.742Z,100893.98
2019-01-24T00:28:07.881Z,100898.62
2019-01-24T00:30:36.084Z,100902.97
2019-01-24T00:33:04.281Z,100899.14
2019-01-24T00:35:32.489Z,100896.99
2019-01-24T00:38:00.684Z,100899.97
2019-01-24T00:40:28.900Z,100901.24
2019-01-24T00:42:57.089Z,100911.22
2019-01-24T00:45:25.303Z,100906.63
2019-01-24T00:47:53.497Z,100914.95
2019-01-24T00:50:21.701Z,100918.92
2019-01-24T00:52:49.891Z,100921.03
2019-01-24T00:55:18.098Z,100914.02
2019-01-24T00:57:46.294Z,100919.64
2019-01-24T01:00:54.604Z,100924.80
2019-01-24T01:03:22.800Z,100927.17
2019-01-24T01:06:10.382Z,100939.09
2019-01-24T01:08:38.576Z,100935.50
2019-01-24T01:11:06.788Z,100937.32
2019-01-24T01:13:54.358Z,100938.12
2019-01-24T01:16:22.561Z,100937.08
2019-01-24T01:18:50.762Z,100929.88
2019-01-24T01:21:18.975Z,100938.10
2019-01-24T01:23:47.163Z,100941.45
2019-01-24T01:26:15.376Z,100949.66
2019-01-24T01:29:03.001Z,100943.75
2019-01-24T01:31:31.209Z,100948.90
2019-01-24T01:33:59.403Z,100947.11
2019-01-24T01:36:27.617Z,100957.76
2019-01-24T01:38:55.814Z,100953.20
2019-01-24T01:41:24.020Z,100959.86
2019-01-24T01:43:52.217Z,100963.28
2019-01-24T01:46:20.423Z,100964.31
2019-01-24T01:48:48.630Z,100964.15
2019-01-24T01:51:16.837Z,100967.27
2019-01-24T01:53:45.038Z,100971.14
2019-01-24T01:56:13.247Z,100966.65
2019-01-24T01:58:41.446Z,100965.66
2019-01-24T02:01:09.649Z,100965.13
2019-01-24T02:03:37.846Z,100969.59
2019-01-24T02:06:06.053Z,100964.27
2019-01-24T02:08:34.252Z,100976.09
2019-01-24T02:11:02.468Z,100969.12
2019-01-24T02:13:30.666Z,100973.64
2019-01-24T02:15:58.859Z,100980.45
2019-01-24T02:18:27.068Z,100971.53
2019-01-24T02:20:55.267Z,100974.23
2019-01-24T02:23:23.481Z,100982.91
2019-01-24T02:25:51.673Z,100980.28
2019-01-24T02:28:19.879Z,100985.55
2019-01-24T02:30:48.072Z,100984.02
2019-01-24T02:33:16.281Z,100987.73
2019-01-24T02:35:44.467Z,100991.91
2019-01-24T02:38:12.677Z,100994.67
2019-01-24T02:40:40.871Z,100985.23
2019-01-24T02:43:09.084Z,100984.50
2019-01-24T02:45:37.273Z,100976.99
2019-01-24T02:48:05.553Z,100982.70
2019-01-24T02:50:33.749Z,100980.00
2019-01-24T02:53:01.954Z,100990.14
2019-01-24T02:58:19.036Z,100988.55
2019-01-24T03:00:47.234Z,100991.73
2019-01-24T03:03:15.449Z,100990.08
2019-01-24T03:05:43.640Z,100989.48
2019-01-24T03:08:11.853Z,100991.14
2019-01-24T03:10:40.042Z,100985.69
2019-01-24T03:13:08.248Z,100985.41
2019-01-24T03:15:36.444Z,100986.52
2019-01-24T03:18:04.655Z,100986.20
2019-01-24T03:20:32.855Z,100985.23
2019-01-24T03:23:01.132Z,100986.99
2019-01-24T03:25:29.326Z,100989.45
2019-01-24T03:28:37.641Z,100990.69
2019-01-24T03:31:05.841Z,100993.66
2019-01-24T03:33:34.053Z,100994.95
2019-01-24T03:36:02.248Z,101001.17
2019-01-24T03:38:30.455Z,101000.48
2019-01-24T03:40:58.652Z,101008.58
2019-01-24T03:43:26.860Z,101007.11
2019-01-24T03:45:55.057Z,101007.91
2019-01-24T03:48:23.284Z,101010.22
2019-01-24T03:50:51.468Z,101011.84
2019-01-24T03:53:19.678Z,101005.00
2019-01-24T03:55:47.867Z,101006.64
2019-01-24T03:58:16.072Z,101007.40
2019-01-24T04:00:44.266Z,101012.63
2019-01-24T04:03:12.473Z,101013.14
2019-01-24T04:05:40.669Z,101003.63
2019-01-24T04:08:08.872Z,101004.11
2019-01-24T04:10:37.117Z,101016.13
2019-01-24T04:13:05.283Z,101012.84
2019-01-24T04:15:33.477Z,101006.81
2019-01-24T04:18:01.686Z,101010.80
2019-01-24T04:20:29.883Z,101012.14
2019-01-24T04:22:58.100Z,101015.50
2019-01-24T04:25:26.330Z,101018.02
2019-01-24T04:27:54.526Z,101013.80
2019-01-24T04:31:02.842Z,101016.78
2019-01-24T04:33:31.044Z,101017.61
2019-01-24T04:35:59.242Z,101017.89
2019-01-24T04:38:27.454Z,101017.37
2019-01-24T04:44:09.133Z,101019.89
2019-01-24T04:46:37.324Z,101015.39
2019-01-24T04:49:05.522Z,101025.42
2019-01-24T04:51:33.704Z,101021.58
2019-01-24T04:54:21.346Z,101018.77
2019-01-24T04:56:49.531Z,101020.59
2019-01-24T04:59:37.234Z,101018.89
2019-01-24T05:02:05.423Z,101024.76
2019-01-24T05:04:33.637Z,101030.02
2019-01-24T05:07:01.827Z,101025.32
2019-01-24T05:09:30.037Z,101034.93
2019-01-24T05:11:58.226Z,101032.63
2019-01-24T05:14:26.427Z,101031.16
2019-01-24T05:16:54.628Z,101031.55
2019-01-24T05:19:22.840Z,101032.19
2019-01-24T05:21:51.024Z,101035.23
2019-01-24T05:24:19.231Z,101039.53
2019-01-24T05:26:47.436Z,101045.45
2019-01-24T05:29:35.071Z,101036.64
2019-01-24T05:32:03.264Z,101036.64
2019-01-24T05:34:31.460Z,101044.04
2019-01-24T05:36:59.648Z,101040.56
2019-01-24T05:39:27.844Z,101040.90
2019-01-24T05:41:56.048Z,101045.02
2019-01-24T05:44:24.251Z,101033.95
2019-01-24T05:46:52.446Z,101033.89
2019-01-24T05:49:20.653Z,101040.66
2019-01-24T05:51:48.849Z,101048.52
2019-01-24T05:54:17.073Z,101044.77
2019-01-24T05:56:45.263Z,101040.98
2019-01-24T05:59:32.897Z,101038.09
2019-01-24T06:02:01.157Z,101038.09
2019-01-24T06:04:29.361Z,101043.50
2019-01-24T06:07:16.993Z,101055.01
2019-01-24T06:09:45.193Z,101055.01
2019-01-24T06:12:13.402Z,101064.74
2019-01-24T06:14:41.591Z,101080.39
2019-01-24T06:17:09.779Z,101080.39
2019-01-24T06:19:37.973Z,101080.64
2019-01-24T06:22:06.179Z,101089.05
2019-01-24T06:24:34.373Z,101093.38
2019-01-24T06:27:02.581Z,101086.81
2019-01-24T06:29:30.780Z,101088.66
2019-01-24T06:31:58.982Z,101089.12
2019-01-24T06:34:27.194Z,101092.91
2019-01-24T06:36:55.392Z,101085.56
2019-01-24T06:39:23.584Z,101096.12
2019-01-24T06:41:51.797Z,101092.50
2019-01-24T06:44:19.994Z,101091.09
2019-01-24T06:47:07.313Z,101089.62
2019-01-24T06:49:35.498Z,101091.52
2019-01-24T06:52:03.714Z,101093.98
2019-01-24T06:54:31.907Z,101094.23
2019-01-24T06:57:00.111Z,101096.19
2019-01-24T06:59:47.422Z,101093.36
2019-01-24T07:02:15.628Z,101093.70
2019-01-24T07:04:43.823Z,101094.25
2019-01-24T07:07:31.473Z,101098.77
2019-01-24T07:09:59.662Z,101102.30
2019-01-24T07:12:47.312Z,101106.70
2019-01-24T07:15:28.181Z,101106.70
2019-01-24T07:17:56.399Z,101114.09
2019-01-24T07:20:24.595Z,101120.03
2019-01-24T07:22:52.802Z,101122.45
2019-01-24T07:28:35.107Z,101133.48
2019-01-24T07:31:03.306Z,101132.69
2019-01-24T07:33:31.516Z,101123.56
2019-01-24T07:36:02.286Z,101128.47
2019-01-24T07:38:29.670Z,101126.23
2019-01-24T07:40:57.875Z,101131.88
2019-01-24T07:43:26.091Z,101135.11
2019-01-24T07:45:54.287Z,101133.57
2019-01-24T07:48:22.496Z,101141.10
2019-01-24T07:50:50.696Z,101141.10
2019-01-24T07:53:18.904Z,101135.81
2019-01-24T07:55:47.097Z,101147.88
2019-01-24T07:58:15.309Z,101147.45
2019-01-24T08:00:43.504Z,101157.47
2019-01-24T08:03:11.715Z,101153.50
2019-01-24T08:05:39.914Z,101167.73
2019-01-24T08:08:08.119Z,101162.13
2019-01-24T08:10:36.313Z,101160.19
2019-01-24T08:13:23.954Z,101173.17
2019-01-24T08:15:52.144Z,101173.17
2019-01-24T08:18:20.360Z,101175.35
2019-01-24T08:20:48.556Z,101181.84
2019-01-24T08:23:16.753Z,101176.13
2019-01-24T08:26:25.070Z,101184.63
2019-01-24T08:28:53.282Z,101181.27
2019-01-24T08:34:08.734Z,101177.02
2019-01-24T08:36:36.933Z,101183.78
2019-01-24T08:39:45.256Z,101189.66
2019-01-24T08:42:13.452Z,101197.39
2019-01-24T08:44:41.655Z,101196.15
2019-01-24T08:47:09.854Z,101202.42
2019-01-24T08:49:38.096Z,101197.50
2019-01-24T08:52:06.290Z,101204.67
2019-01-24T08:54:34.486Z,101205.81
2019-01-24T08:57:02.698Z,101202.36
2019-01-24T09:00:11.017Z,101202.14
2019-01-24T09:02:39.206Z,101199.63
2019-01-24T09:05:47.533Z,101196.80
2019-01-24T09:08:15.724Z,101198.41
2019-01-24T09:10:43.937Z,101200.61
2019-01-24T09:13:12.202Z,101202.02
2019-01-24T09:15:40.415Z,101204.73
2019-01-24T09:18:28.045Z,101202.22
2019-01-24T09:20:56.945Z,101202.22
2019-01-24T09:23:26.192Z,101202.22
2019-01-24T09:25:54.401Z,101198.34
2019-01-24T09:28:22.593Z,101210.86
2019-01-24T09:30:50.805Z,101212.58
2019-01-24T09:36:06.279Z,101224.65
2019-01-24T09:38:34.476Z,101223.69
2019-01-24T09:41:02.688Z,101216.41
2019-01-24T09:43:30.885Z,101210.29
2019-01-24T09:45:59.101Z,101216.84
2019-01-24T09:48:27.299Z,101218.28
2019-01-24T09:50:55.509Z,101216.67
2019-01-24T09:53:23.708Z,101218.28
2019-01-24T09:55:51.919Z,101217.75
2019-01-24T09:58:20.113Z,101226.15
2019-01-24T10:00:48.309Z,101222.25
2019-01-24T10:03:16.517Z,101226.06
2019-01-24T10:05:44.713Z,101221.81
2019-01-24T10:08:12.922Z,101225.35
2019-01-24T10:10:41.123Z,101232.34
2019-01-24T10:13:09.333Z,101228.52
2019-01-24T10:15:37.534Z,101224.41
2019-01-24T10:18:45.848Z,101226.89
2019-01-24T10:21:33.521Z,101232.78
2019-01-24T10:24:01.681Z,101232.78
2019-01-24T10:26:29.880Z,101238.45
2019-01-24T10:28:58.090Z,101242.27
2019-01-24T10:31:46.496Z,101242.08
2019-01-24T10:34:15.738Z,101242.08
2019-01-24T10:36:44.008Z,101249.42
2019-01-24T10:39:12.221Z,101235.30
2019-01-24T10:41:40.417Z,101231.24
2019-01-24T10:44:08.627Z,101227.23
2019-01-24T10:46:36.824Z,101227.04
2019-01-24T10:49:05.036Z,101223.94
2019-01-24T10:51:33.233Z,101227.61
2019-01-24T10:54:01.441Z,101224.95
2019-01-24T10:56:29.638Z,101231.67
2019-01-24T10:58:57.856Z,101228.84
2019-01-24T11:01:26.059Z,101234.25
2019-01-24T11:03:54.278Z,101236.63
2019-01-24T11:06:22.476Z,101235.80
2019-01-24T11:08:50.681Z,101229.50
2019-01-24T11:11:18.879Z,101227.34
2019-01-24T11:13:47.089Z,101227.04
2019-01-24T11:16:15.284Z,101227.88
2019-01-24T11:18:43.516Z,101232.77
2019-01-24T11:21:11.712Z,101227.54
2019-01-24T11:23:39.912Z,101218.23
2019-01-24T11:26:08.143Z,101222.65
2019-01-24T11:28:36.335Z,101219.22
2019-01-24T11:31:04.557Z,101224.66
2019-01-24T11:33:32.768Z,101214.96
2019-01-24T11:36:00.984Z,101220.13
2019-01-24T11:38:29.185Z,101208.41
2019-01-24T11:40:57.416Z,101216.79
2019-01-24T11:43:25.612Z,101220.02
2019-01-24T11:45:53.822Z,101222.01
2019-01-24T11:48:22.020Z,101221.03
2019-01-24T11:50:51.167Z,101216.30
2019-01-24T11:53:20.150Z,101220.39
2019-01-24T11:55:48.365Z,101216.13
2019-01-24T11:58:16.568Z,101212.64
2019-01-24T12:03:23.906Z,101217.18
2019-01-24T12:05:52.127Z,101216.98
2019-01-24T12:08:20.327Z,101217.60
2019-01-24T12:10:48.542Z,101215.22
2019-01-24T12:13:16.745Z,101214.64
2019-01-24T12:15:52.351Z,101209.90
2019-01-24T12:18:20.549Z,101202.80
2019-01-24T12:20:48.769Z,101206.91
2019-01-24T12:23:16.964Z,101208.64
2019-01-24T12:25:45.169Z,101205.16
2019-01-24T12:28:13.362Z,101211.10
2019-01-24T12:30:41.587Z,101209.80
2019-01-24T12:33:09.779Z,101206.00
2019-01-24T12:35:37.992Z,101205.22
2019-01-24T12:38:06.187Z,101204.44
2019-01-24T12:40:34.412Z,101204.28
2019-01-24T12:43:02.606Z,101202.09
2019-01-24T12:46:10.921Z,101210.22
2019-01-24T12:48:39.184Z,101212.78
2019-01-24T12:51:07.388Z,101205.89
2019-01-24T12:53:35.588Z,101201.31
2019-01-24T12:56:03.797Z,101205.89
2019-01-24T12:58:31.989Z,101199.91
2019-01-24T13:01:00.207Z,101199.42
2019-01-24T13:03:28.400Z,101206.31
2019-01-24T13:05:56.592Z,101204.43
2019-01-24T13:08:24.807Z,101196.45
2019-01-24T13:10:53.005Z,101203.60
2019-01-24T13:13:21.208Z,101208.50
2019-01-24T13:15:49.403Z,101203.39
2019-01-24T13:18:17.696Z,101208.34
2019-01-24T13:20:45.911Z,101208.79
2019-01-24T13:23:14.108Z,101196.84
2019-01-24T13:25:42.305Z,101194.70
2019-01-24T13:28:10.529Z,101198.25
2019-01-24T13:30:38.725Z,101199.61
2019-01-24T13:33:06.930Z,101200.04
2019-01-24T13:35:35.124Z,101208.27
2019-01-24T13:38:03.340Z,101209.14
2019-01-24T13:43:45.476Z,101205.25
2019-01-24T13:46:13.668Z,101212.61
2019-01-24T13:48:41.883Z,101215.33
2019-01-24T13:51:10.079Z,101209.50
2019-01-24T13:53:57.708Z,101208.06
2019-01-24T13:56:25.916Z,101209.72
2019-01-24T13:58:54.129Z,101210.50
2019-01-24T14:01:22.326Z,101215.98
2019-01-24T14:04:30.642Z,101217.47
2019-01-24T14:06:58.829Z,101219.09
2019-01-24T14:09:27.050Z,101216.99
2019-01-24T14:11:55.238Z,101209.37
2019-01-24T14:14:23.465Z,101214.89
2019-01-24T14:16:51.670Z,101215.63
2019-01-24T14:19:19.896Z,101212.91
2019-01-24T14:21:48.100Z,101208.36
2019-01-24T14:24:16.305Z,101217.33
2019-01-24T14:26:44.499Z,101205.56
2019-01-24T14:29:12.716Z,101203.84
2019-01-24T14:31:40.910Z,101200.72
2019-01-24T14:34:09.115Z,101202.29
2019-01-24T14:36:37.318Z,101201.97
2019-01-24T14:39:45.632Z,101203.28
2019-01-24T14:42:13.829Z,101200.27
2019-01-24T14:44:42.037Z,101211.52
2019-01-24T14:47:10.223Z,101218.88
2019-01-24T14:49:38.433Z,101218.03
2019-01-24T14:52:06.640Z,101217.00
2019-01-24T14:54:34.851Z,101217.48
2019-01-24T14:57:03.045Z,101219.70
2019-01-24T14:59:31.281Z,101223.47
2019-01-24T15:01:59.477Z,101230.77
2019-01-24T15:04:27.691Z,101225.03
2019-01-24T15:06:55.883Z,101239.37
2019-01-24T15:09:24.089Z,101236.41
2019-01-24T15:11:52.281Z,101238.91
2019-01-24T15:14:20.483Z,101244.73
2019-01-24T15:16:48.685Z,101248.39
2019-01-24T15:19:16.885Z,101244.38
2019-01-24T15:21:45.085Z,101251.41
2019-01-24T15:24:13.337Z,101250.75
2019-01-24T15:26:41.532Z,101249.34
2019-01-24T15:29:09.737Z,101252.62
2019-01-24T15:31:37.941Z,101253.98
2019-01-24T15:34:06.140Z,101251.90
2019-01-24T15:36:34.352Z,101255.84
2019-01-24T15:39:02.620Z,101253.19
2019-01-24T15:41:30.854Z,101260.28
2019-01-24T15:43:59.048Z,101263.98
2019-01-24T15:46:27.267Z,101265.55
2019-01-24T15:48:55.463Z,101258.41
2019-01-24T15:51:23.672Z,101271.03
2019-01-24T15:53:51.872Z,101268.44
2019-01-24T15:56:20.084Z,101271.56
2019-01-24T15:58:48.278Z,101272.65
2019-01-24T16:01:16.491Z,101269.61
2019-01-24T16:03:45.641Z,101269.89
2019-01-24T16:06:14.613Z,101271.87
2019-01-24T16:08:42.818Z,101269.98
2019-01-24T16:11:11.025Z,101272.55
2019-01-24T16:13:39.222Z,101275.19
2019-01-24T16:16:07.431Z,101281.39
2019-01-24T16:18:35.631Z,101285.94
2019-01-24T16:21:03.842Z,101285.72
2019-01-24T16:23:32.034Z,101289.85
2019-01-24T16:26:00.241Z,101293.14
2019-01-24T16:28:28.445Z,101295.59
2019-01-24T16:30:56.774Z,101296.42
2019-01-24T16:33:24.963Z,101294.59
2019-01-24T16:35:53.175Z,101295.13
2019-01-24T16:38:21.376Z,101292.94
2019-01-24T16:40:49.781Z,101297.53
2019-01-24T16:43:17.977Z,101297.21
2019-01-24T16:45:46.164Z,101295.33
2019-01-24T16:48:14.374Z,101304.11
2019-01-24T16:50:42.568Z,101316.62
2019-01-24T16:53:10.768Z,101313.33
2019-01-24T16:55:38.962Z,101314.11
2019-01-24T16:58:07.171Z,101315.41
2019-01-24T17:00:54.860Z,101312.13
2019-01-24T17:03:23.072Z,101308.88
2019-01-24T17:05:51.323Z,101314.73
2019-01-24T17:08:19.550Z,101319.02
2019-01-24T17:10:47.761Z,101317.55
2019-01-24T17:13:15.971Z,101320.05
2019-01-24T17:15:44.167Z,101315.84
2019-01-24T17:18:12.377Z,101314.48
2019-01-24T17:20:40.574Z,101309.26
2019-01-24T17:23:08.791Z,101318.07
2019-01-24T17:25:36.987Z,101311.75
2019-01-24T17:28:05.198Z,101308.78
2019-01-24T17:30:34.941Z,101307.28
2019-01-24T17:33:03.341Z,101312.75
2019-01-24T17:35:31.537Z,101318.13
2019-01-24T17:37:59.742Z,101322.77
2019-01-24T17:43:28.533Z,101317.30
2019-01-24T17:45:56.735Z,101325.28
2019-01-24T17:48:24.952Z,101325.95
2019-01-24T17:50:53.142Z,101320.75
2019-01-24T17:53:21.415Z,101320.89
2019-01-24T17:55:49.610Z,101316.91
2019-01-24T17:58:17.816Z,101312.58
2019-01-24T18:01:05.130Z,101310.92
2019-01-24T18:03:33.345Z,101308.77
2019-01-24T18:06:01.534Z,101311.67
2019-01-24T18:08:31.416Z,101315.44
2019-01-24T18:10:59.675Z,101318.98
2019-01-24T18:13:27.883Z,101323.24
2019-01-24T18:15:56.306Z,101330.02
2019-01-24T18:18:24.736Z,101321.94
2019-01-24T18:20:53.341Z,101322.73
2019-01-24T18:23:21.613Z,101330.41
2019-01-24T18:25:49.820Z,101331.30
2019-01-24T18:28:18.017Z,101328.92
2019-01-24T18:30:46.229Z,101334.07
2019-01-24T18:33:14.435Z,101338.46
2019-01-24T18:35:42.653Z,101342.37
2019-01-24T18:38:10.843Z,101347.23
2019-01-24T18:40:39.065Z,101350.59
2019-01-24T18:46:21.249Z,101355.96
2019-01-24T18:48:49.446Z,101356.20
2019-01-24T18:51:17.651Z,101368.00
2019-01-24T18:53:45.842Z,101366.85
2019-01-24T18:56:14.048Z,101372.77
2019-01-24T18:58:42.240Z,101367.47
2019-01-24T19:01:10.439Z,101367.67
2019-01-24T19:03:38.664Z,101363.97
2019-01-24T19:06:06.891Z,101367.85
2019-01-24T19:08:35.080Z,101368.52
2019-01-24T19:11:03.284Z,101372.91
2019-01-24T19:13:31.482Z,101368.47
2019-01-24T19:15:59.684Z,101372.72
2019-01-24T19:18:27.873Z,101364.78
2019-01-24T19:20:56.082Z,101371.26
2019-01-24T19:23:24.279Z,101370.33
2019-01-24T19:25:52.488Z,101379.69
2019-01-24T19:28:20.687Z,101382.20
2019-01-24T19:30:48.898Z,101384.23
2019-01-24T19:33:17.092Z,101382.56
2019-01-24T19:35:45.307Z,101390.39
2019-01-24T19:38:13.513Z,101386.22
2019-01-24T19:40:41.719Z,101384.74
2019-01-24T19:43:09.914Z,101386.05
2019-01-24T19:45:38.149Z,101393.03
2019-01-24T19:48:06.339Z,101393.94
2019-01-24T19:50:34.542Z,101391.27
2019-01-24T19:53:02.736Z,101397.69
2019-01-24T19:55:30.950Z,101394.39
2019-01-24T19:57:59.150Z,101397.16
2019-01-24T20:01:07.471Z,101395.75
2019-01-24T20:03:35.671Z,101396.58
2019-01-24T20:06:03.885Z,101403.36
2019-01-24T20:08:32.078Z,101400.52
2019-01-24T20:11:00.300Z,101404.74
2019-01-24T20:13:28.494Z,101401.27
2019-01-24T20:15:56.703Z,101398.25
2019-01-24T20:18:24.897Z,101396.22
2019-01-24T20:20:53.112Z,101397.58
2019-01-24T20:23:21.311Z,101405.19
2019-01-24T20:25:49.517Z,101402.50
2019-01-24T20:28:17.712Z,101399.02
2019-01-24T20:30:45.925Z,101401.45
2019-01-24T20:33:14.122Z,101402.42
2019-01-24T20:36:22.447Z,101409.98
2019-01-24T20:38:50.651Z,101404.11
2019-01-24T20:41:18.863Z,101401.40
2019-01-24T20:43:47.047Z,101403.53
2019-01-24T20:46:15.253Z,101400.56
2019-01-24T20:48:43.449Z,101405.02
2019-01-24T20:51:11.685Z,101404.03
2019-01-24T20:53:39.890Z,101401.58
2019-01-24T20:56:08.107Z,101399.89
2019-01-24T20:58:36.312Z,101405.39
2019-01-24T21:01:44.630Z,101401.58
2019-01-24T21:04:12.828Z,101396.83
2019-01-24T21:06:41.041Z,101394.64
2019-01-24T21:09:14.627Z,101398.19
2019-01-24T21:11:39.161Z,101400.97
2019-01-24T21:14:07.363Z,101395.87
2019-01-24T21:16:35.573Z,101395.55
2019-01-24T21:19:03.772Z,101399.66
2019-01-24T21:21:31.978Z,101401.08
2019-01-24T21:24:00.177Z,101397.94
2019-01-24T21:26:28.429Z,101390.25
2019-01-24T21:28:56.628Z,101387.48
2019-01-24T21:31:24.825Z,101389.89
2019-01-24T21:33:53.041Z,101390.78
2019-01-24T21:36:21.227Z,101396.28
2019-01-24T21:38:49.443Z,101393.23
2019-01-24T21:41:17.638Z,101395.90
2019-01-24T21:43:45.845Z,101396.78
2019-01-24T21:46:14.044Z,101396.91
2019-01-24T21:48:42.254Z,101396.45
2019-01-24T21:51:11.267Z,101400.88
2019-01-24T21:53:40.382Z,101407.61
2019-01-24T21:56:08.581Z,101406.50
2019-01-24T21:58:36.790Z,101401.30
2019-01-24T22:01:04.990Z,101407.55
2019-01-24T22:03:33.233Z,101396.22
2019-01-24T22:06:01.394Z,101402.75
2019-01-24T22:08:29.608Z,101414.09
2019-01-24T22:10:57.798Z,101411.09
2019-01-24T22:13:26.011Z,101409.74
2019-01-24T22:15:54.209Z,101414.97
2019-01-24T22:18:22.418Z,101410.42
2019-01-24T22:20:55.635Z,101410.57
2019-01-24T22:23:20.545Z,101403.62
2019-01-24T22:25:48.739Z,101407.53
2019-01-24T22:28:16.955Z,101415.47
2019-01-24T22:33:34.034Z,101418.14
2019-01-24T22:36:02.366Z,101405.16
2019-01-24T22:38:30.568Z,101414.23
2019-01-24T22:40:58.803Z,101419.20
2019-01-24T22:43:27.009Z,101412.47
2019-01-24T22:45:55.194Z,101412.52
2019-01-24T22:48:23.407Z,101409.04
2019-01-24T22:50:51.604Z,101407.66
2019-01-24T22:53:19.806Z,101414.15
2019-01-24T22:55:47.994Z,101413.88
2019-01-24T22:58:16.208Z,101411.39
2019-01-24T23:03:58.535Z,101412.30
2019-01-24T23:06:26.735Z,101421.85
2019-01-24T23:08:54.937Z,101424.79
2019-01-24T23:11:23.663Z,101427.76
2019-01-24T23:13:53.046Z,101419.16
2019-01-24T23:16:21.242Z,101424.38
2019-01-24T23:18:49.443Z,101422.80
2019-01-24T23:21:17.631Z,101423.37
2019-01-24T23:23:45.843Z,101421.52
2019-01-24T23:26:14.040Z,101423.97
2019-01-24T23:28:42.251Z,101427.77
2019-01-24T23:31:10.440Z,101424.53
2019-01-24T23:33:38.640Z,101428.61
2019-01-24T23:36:06.832Z,101428.03
2019-01-24T23:38:35.046Z,101431.75
2019-01-24T23:41:03.237Z,101438.00
2019-01-24T23:43:31.523Z,101434.52
2019-01-24T23:45:59.715Z,101433.73
2019-01-24T23:48:27.925Z,101434.88
2019-01-24T23:50:56.132Z,101438.17
2019-01-24T23:53:24.322Z,101431.95
2019-01-24T23:55:52.540Z,101430.66
2019-01-24T23:58:20.736Z,101430.97
